sensor_id;sensor_type;location;lat;lon;timestamp;P1;durP1;ratioP1;P2;durP2;ratioP2
52186;SDS011;38161;53.020;6.598;2024-03-22T00:01:53;33.95;;;21.98;;
52186;SDS011;38161;53.020;6.598;2024-03-22T00:04:20;33.10;;;22.70;;
52186;SDS011;38161;53.020;6.598;2024-03-22T00:06:47;32.97;;;21.73;;
52186;SDS011;38161;53.020;6.598;2024-03-22T00:09:15;32.17;;;21.25;;
52186;SDS011;38161;53.020;6.598;2024-03-22T00:11:41;35.00;;;23.38;;
52186;SDS011;38161;53.020;6.598;2024-03-22T00:14:08;36.08;;;22.48;;
52186;SDS011;38161;53.020;6.598;2024-03-22T00:16:36;34.83;;;22.02;;
52186;SDS011;38161;53.020;6.598;2024-03-22T00:19:02;32.88;;;21.65;;
52186;SDS011;38161;53.020;6.598;2024-03-22T00:21:29;35.42;;;22.70;;
52186;SDS011;38161;53.020;6.598;2024-03-22T00:23:55;35.78;;;23.33;;
52186;SDS011;38161;53.020;6.598;2024-03-22T00:26:21;38.47;;;24.70;;
52186;SDS011;38161;53.020;6.598;2024-03-22T00:28:47;37.30;;;24.13;;
52186;SDS011;38161;53.020;6.598;2024-03-22T00:31:12;38.05;;;25.90;;
52186;SDS011;38161;53.020;6.598;2024-03-22T00:33:38;38.50;;;24.58;;
52186;SDS011;38161;53.020;6.598;2024-03-22T00:36:04;39.83;;;25.17;;
52186;SDS011;38161;53.020;6.598;2024-03-22T00:38:31;41.88;;;25.77;;
52186;SDS011;38161;53.020;6.598;2024-03-22T00:40:57;40.97;;;24.73;;
52186;SDS011;38161;53.020;6.598;2024-03-22T00:43:23;39.03;;;24.73;;
52186;SDS011;38161;53.020;6.598;2024-03-22T00:45:49;37.67;;;25.10;;
52186;SDS011;38161;53.020;6.598;2024-03-22T00:48:15;42.55;;;24.90;;
52186;SDS011;38161;53.020;6.598;2024-03-22T00:50:41;43.55;;;27.20;;
52186;SDS011;38161;53.020;6.598;2024-03-22T00:53:07;41.05;;;26.42;;
52186;SDS011;38161;53.020;6.598;2024-03-22T00:55:33;44.08;;;27.17;;
52186;SDS011;38161;53.020;6.598;2024-03-22T00:57:59;46.33;;;27.67;;
52186;SDS011;38161;53.020;6.598;2024-03-22T01:00:25;45.10;;;27.70;;
52186;SDS011;38161;53.020;6.598;2024-03-22T01:02:51;45.13;;;28.13;;
52186;SDS011;38161;53.020;6.598;2024-03-22T01:05:17;45.47;;;27.58;;
52186;SDS011;38161;53.020;6.598;2024-03-22T01:07:43;42.28;;;27.50;;
52186;SDS011;38161;53.020;6.598;2024-03-22T01:10:10;44.38;;;28.85;;
52186;SDS011;38161;53.020;6.598;2024-03-22T01:12:36;46.65;;;28.40;;
52186;SDS011;38161;53.020;6.598;2024-03-22T01:15:04;47.00;;;28.55;;
52186;SDS011;38161;53.020;6.598;2024-03-22T01:17:31;47.92;;;28.17;;
52186;SDS011;38161;53.020;6.598;2024-03-22T01:19:57;47.97;;;29.50;;
52186;SDS011;38161;53.020;6.598;2024-03-22T01:22:22;44.95;;;29.20;;
52186;SDS011;38161;53.020;6.598;2024-03-22T01:24:48;48.80;;;29.77;;
52186;SDS011;38161;53.020;6.598;2024-03-22T01:27:14;48.22;;;30.67;;
52186;SDS011;38161;53.020;6.598;2024-03-22T01:29:40;47.95;;;30.08;;
52186;SDS011;38161;53.020;6.598;2024-03-22T01:32:06;48.97;;;30.63;;
52186;SDS011;38161;53.020;6.598;2024-03-22T01:34:32;48.00;;;31.17;;
52186;SDS011;38161;53.020;6.598;2024-03-22T01:36:58;48.53;;;30.77;;
52186;SDS011;38161;53.020;6.598;2024-03-22T01:39:23;50.90;;;31.13;;
52186;SDS011;38161;53.020;6.598;2024-03-22T01:41:50;48.35;;;29.27;;
52186;SDS011;38161;53.020;6.598;2024-03-22T01:44:16;53.50;;;32.95;;
52186;SDS011;38161;53.020;6.598;2024-03-22T01:46:43;55.53;;;31.25;;
52186;SDS011;38161;53.020;6.598;2024-03-22T01:49:09;51.40;;;33.03;;
52186;SDS011;38161;53.020;6.598;2024-03-22T01:51:40;53.70;;;31.27;;
52186;SDS011;38161;53.020;6.598;2024-03-22T01:54:08;51.80;;;33.80;;
52186;SDS011;38161;53.020;6.598;2024-03-22T01:56:38;52.67;;;31.88;;
52186;SDS011;38161;53.020;6.598;2024-03-22T01:59:04;55.20;;;32.83;;
52186;SDS011;38161;53.020;6.598;2024-03-22T02:01:30;59.45;;;32.97;;
52186;SDS011;38161;53.020;6.598;2024-03-22T02:03:56;51.03;;;31.65;;
52186;SDS011;38161;53.020;6.598;2024-03-22T02:06:22;53.63;;;33.72;;
52186;SDS011;38161;53.020;6.598;2024-03-22T02:08:48;52.35;;;32.13;;
52186;SDS011;38161;53.020;6.598;2024-03-22T02:11:14;51.28;;;32.80;;
52186;SDS011;38161;53.020;6.598;2024-03-22T02:13:40;54.58;;;32.80;;
52186;SDS011;38161;53.020;6.598;2024-03-22T02:16:08;59.33;;;33.63;;
52186;SDS011;38161;53.020;6.598;2024-03-22T02:18:34;57.03;;;33.30;;
52186;SDS011;38161;53.020;6.598;2024-03-22T02:21:00;58.42;;;34.10;;
52186;SDS011;38161;53.020;6.598;2024-03-22T02:26:01;56.83;;;34.30;;
52186;SDS011;38161;53.020;6.598;2024-03-22T02:28:28;55.95;;;33.80;;
52186;SDS011;38161;53.020;6.598;2024-03-22T02:30:55;60.22;;;35.53;;
52186;SDS011;38161;53.020;6.598;2024-03-22T02:33:21;59.90;;;34.47;;
52186;SDS011;38161;53.020;6.598;2024-03-22T02:35:47;59.35;;;35.92;;
52186;SDS011;38161;53.020;6.598;2024-03-22T02:40:39;58.67;;;34.55;;
52186;SDS011;38161;53.020;6.598;2024-03-22T02:43:05;57.95;;;34.22;;
52186;SDS011;38161;53.020;6.598;2024-03-22T02:45:31;58.28;;;33.60;;
52186;SDS011;38161;53.020;6.598;2024-03-22T02:47:57;54.83;;;33.72;;
52186;SDS011;38161;53.020;6.598;2024-03-22T02:50:23;57.33;;;35.20;;
52186;SDS011;38161;53.020;6.598;2024-03-22T02:52:49;56.90;;;34.83;;
52186;SDS011;38161;53.020;6.598;2024-03-22T02:55:15;58.83;;;34.08;;
52186;SDS011;38161;53.020;6.598;2024-03-22T02:57:41;55.38;;;35.03;;
52186;SDS011;38161;53.020;6.598;2024-03-22T03:00:07;62.40;;;36.80;;
52186;SDS011;38161;53.020;6.598;2024-03-22T03:02:33;60.42;;;36.05;;
52186;SDS011;38161;53.020;6.598;2024-03-22T03:04:59;60.33;;;36.78;;
52186;SDS011;38161;53.020;6.598;2024-03-22T03:07:25;54.95;;;32.90;;
52186;SDS011;38161;53.020;6.598;2024-03-22T03:09:50;61.88;;;36.92;;
52186;SDS011;38161;53.020;6.598;2024-03-22T03:12:16;66.10;;;36.67;;
52186;SDS011;38161;53.020;6.598;2024-03-22T03:14:42;61.08;;;35.63;;
52186;SDS011;38161;53.020;6.598;2024-03-22T03:17:08;57.58;;;34.72;;
52186;SDS011;38161;53.020;6.598;2024-03-22T03:19:34;60.67;;;36.45;;
52186;SDS011;38161;53.020;6.598;2024-03-22T03:22:00;56.13;;;34.58;;
52186;SDS011;38161;53.020;6.598;2024-03-22T03:24:25;65.72;;;35.20;;
52186;SDS011;38161;53.020;6.598;2024-03-22T03:26:51;61.87;;;36.87;;
52186;SDS011;38161;53.020;6.598;2024-03-22T03:29:17;59.45;;;36.72;;
52186;SDS011;38161;53.020;6.598;2024-03-22T03:31:43;59.58;;;35.95;;
52186;SDS011;38161;53.020;6.598;2024-03-22T03:34:08;63.60;;;37.30;;
52186;SDS011;38161;53.020;6.598;2024-03-22T03:36:34;57.47;;;35.27;;
52186;SDS011;38161;53.020;6.598;2024-03-22T03:39:00;59.47;;;36.43;;
52186;SDS011;38161;53.020;6.598;2024-03-22T03:41:25;57.40;;;35.22;;
52186;SDS011;38161;53.020;6.598;2024-03-22T03:43:51;64.57;;;36.75;;
52186;SDS011;38161;53.020;6.598;2024-03-22T03:46:17;69.70;;;37.42;;
52186;SDS011;38161;53.020;6.598;2024-03-22T03:48:43;63.33;;;36.70;;
52186;SDS011;38161;53.020;6.598;2024-03-22T03:51:08;60.00;;;36.07;;
52186;SDS011;38161;53.020;6.598;2024-03-22T03:53:34;62.55;;;36.42;;
52186;SDS011;38161;53.020;6.598;2024-03-22T03:56:00;66.47;;;37.30;;
52186;SDS011;38161;53.020;6.598;2024-03-22T03:58:26;56.83;;;34.97;;
52186;SDS011;38161;53.020;6.598;2024-03-22T04:00:51;63.42;;;36.60;;
52186;SDS011;38161;53.020;6.598;2024-03-22T04:03:17;65.38;;;37.72;;
52186;SDS011;38161;53.020;6.598;2024-03-22T04:08:10;59.25;;;35.20;;
52186;SDS011;38161;53.020;6.598;2024-03-22T04:10:35;60.57;;;34.07;;
52186;SDS011;38161;53.020;6.598;2024-03-22T04:13:01;55.40;;;33.85;;
52186;SDS011;38161;53.020;6.598;2024-03-22T04:15:27;70.55;;;36.38;;
52186;SDS011;38161;53.020;6.598;2024-03-22T04:17:54;64.75;;;36.45;;
52186;SDS011;38161;53.020;6.598;2024-03-22T04:20:21;63.58;;;34.97;;
52186;SDS011;38161;53.020;6.598;2024-03-22T04:22:47;65.13;;;35.75;;
52186;SDS011;38161;53.020;6.598;2024-03-22T04:25:14;62.08;;;34.60;;
52186;SDS011;38161;53.020;6.598;2024-03-22T04:27:40;63.28;;;35.20;;
52186;SDS011;38161;53.020;6.598;2024-03-22T04:30:06;62.85;;;35.90;;
52186;SDS011;38161;53.020;6.598;2024-03-22T04:32:33;60.70;;;34.40;;
52186;SDS011;38161;53.020;6.598;2024-03-22T04:34:59;64.93;;;34.73;;
52186;SDS011;38161;53.020;6.598;2024-03-22T04:37:25;63.92;;;34.58;;
52186;SDS011;38161;53.020;6.598;2024-03-22T04:39:51;62.40;;;33.57;;
52186;SDS011;38161;53.020;6.598;2024-03-22T04:42:16;62.95;;;33.35;;
52186;SDS011;38161;53.020;6.598;2024-03-22T04:44:42;59.97;;;33.92;;
52186;SDS011;38161;53.020;6.598;2024-03-22T04:47:08;67.68;;;34.15;;
52186;SDS011;38161;53.020;6.598;2024-03-22T04:49:34;60.80;;;32.15;;
52186;SDS011;38161;53.020;6.598;2024-03-22T04:51:59;58.63;;;31.10;;
52186;SDS011;38161;53.020;6.598;2024-03-22T04:54:25;57.85;;;32.33;;
52186;SDS011;38161;53.020;6.598;2024-03-22T04:56:51;56.95;;;31.85;;
52186;SDS011;38161;53.020;6.598;2024-03-22T04:59:17;58.33;;;31.60;;
52186;SDS011;38161;53.020;6.598;2024-03-22T05:01:43;54.10;;;29.60;;
52186;SDS011;38161;53.020;6.598;2024-03-22T05:06:35;56.67;;;29.85;;
52186;SDS011;38161;53.020;6.598;2024-03-22T05:09:00;57.75;;;30.20;;
52186;SDS011;38161;53.020;6.598;2024-03-22T05:11:28;60.30;;;30.20;;
52186;SDS011;38161;53.020;6.598;2024-03-22T05:13:54;52.80;;;28.30;;
52186;SDS011;38161;53.020;6.598;2024-03-22T05:16:20;53.50;;;29.00;;
52186;SDS011;38161;53.020;6.598;2024-03-22T05:18:46;52.33;;;30.25;;
52186;SDS011;38161;53.020;6.598;2024-03-22T05:21:12;53.42;;;28.98;;
52186;SDS011;38161;53.020;6.598;2024-03-22T05:23:38;55.25;;;28.75;;
52186;SDS011;38161;53.020;6.598;2024-03-22T05:26:03;56.67;;;28.27;;
52186;SDS011;38161;53.020;6.598;2024-03-22T05:28:29;48.17;;;28.20;;
52186;SDS011;38161;53.020;6.598;2024-03-22T05:30:55;48.03;;;26.27;;
52186;SDS011;38161;53.020;6.598;2024-03-22T05:33:21;49.73;;;28.30;;
52186;SDS011;38161;53.020;6.598;2024-03-22T05:35:47;49.43;;;27.33;;
52186;SDS011;38161;53.020;6.598;2024-03-22T05:38:12;51.20;;;25.57;;
52186;SDS011;38161;53.020;6.598;2024-03-22T05:40:38;52.60;;;26.55;;
52186;SDS011;38161;53.020;6.598;2024-03-22T05:43:04;45.00;;;25.45;;
52186;SDS011;38161;53.020;6.598;2024-03-22T05:45:30;55.08;;;27.67;;
52186;SDS011;38161;53.020;6.598;2024-03-22T05:47:56;49.45;;;27.45;;
52186;SDS011;38161;53.020;6.598;2024-03-22T05:50:22;49.97;;;26.83;;
52186;SDS011;38161;53.020;6.598;2024-03-22T05:52:48;48.85;;;25.85;;
52186;SDS011;38161;53.020;6.598;2024-03-22T05:55:13;46.63;;;26.17;;
52186;SDS011;38161;53.020;6.598;2024-03-22T05:57:39;43.50;;;25.17;;
52186;SDS011;38161;53.020;6.598;2024-03-22T06:00:05;46.80;;;25.53;;
52186;SDS011;38161;53.020;6.598;2024-03-22T06:02:34;45.88;;;25.83;;
52186;SDS011;38161;53.020;6.598;2024-03-22T06:05:00;47.97;;;25.80;;
52186;SDS011;38161;53.020;6.598;2024-03-22T06:07:25;46.57;;;25.10;;
52186;SDS011;38161;53.020;6.598;2024-03-22T06:09:51;44.90;;;25.45;;
52186;SDS011;38161;53.020;6.598;2024-03-22T06:12:17;48.42;;;26.08;;
52186;SDS011;38161;53.020;6.598;2024-03-22T06:14:44;45.00;;;25.27;;
52186;SDS011;38161;53.020;6.598;2024-03-22T06:17:10;44.50;;;25.80;;
52186;SDS011;38161;53.020;6.598;2024-03-22T06:19:36;42.47;;;25.90;;
52186;SDS011;38161;53.020;6.598;2024-03-22T06:22:02;44.15;;;25.08;;
52186;SDS011;38161;53.020;6.598;2024-03-22T06:24:28;45.05;;;24.92;;
52186;SDS011;38161;53.020;6.598;2024-03-22T06:26:54;43.10;;;25.73;;
52186;SDS011;38161;53.020;6.598;2024-03-22T06:29:20;48.00;;;25.33;;
52186;SDS011;38161;53.020;6.598;2024-03-22T06:31:46;42.77;;;24.60;;
52186;SDS011;38161;53.020;6.598;2024-03-22T06:34:12;41.00;;;24.80;;
52186;SDS011;38161;53.020;6.598;2024-03-22T06:36:38;45.50;;;26.90;;
52186;SDS011;38161;53.020;6.598;2024-03-22T06:39:04;49.97;;;26.52;;
52186;SDS011;38161;53.020;6.598;2024-03-22T06:41:34;45.53;;;25.85;;
52186;SDS011;38161;53.020;6.598;2024-03-22T06:44:00;49.97;;;26.40;;
52186;SDS011;38161;53.020;6.598;2024-03-22T06:46:26;48.72;;;25.25;;
52186;SDS011;38161;53.020;6.598;2024-03-22T06:48:53;42.42;;;25.48;;
52186;SDS011;38161;53.020;6.598;2024-03-22T06:51:19;45.13;;;25.40;;
52186;SDS011;38161;53.020;6.598;2024-03-22T06:53:45;43.22;;;23.55;;
52186;SDS011;38161;53.020;6.598;2024-03-22T06:56:11;45.20;;;24.23;;
52186;SDS011;38161;53.020;6.598;2024-03-22T06:58:37;40.03;;;24.15;;
52186;SDS011;38161;53.020;6.598;2024-03-22T07:01:06;44.17;;;24.73;;
52186;SDS011;38161;53.020;6.598;2024-03-22T07:03:31;40.23;;;23.50;;
52186;SDS011;38161;53.020;6.598;2024-03-22T07:05:57;42.05;;;23.95;;
52186;SDS011;38161;53.020;6.598;2024-03-22T07:08:23;35.97;;;22.55;;
52186;SDS011;38161;53.020;6.598;2024-03-22T07:10:50;41.55;;;22.63;;
52186;SDS011;38161;53.020;6.598;2024-03-22T07:13:18;38.80;;;22.60;;
52186;SDS011;38161;53.020;6.598;2024-03-22T07:15:44;39.40;;;22.60;;
52186;SDS011;38161;53.020;6.598;2024-03-22T07:18:10;38.30;;;22.60;;
52186;SDS011;38161;53.020;6.598;2024-03-22T07:20:36;42.53;;;21.85;;
52186;SDS011;38161;53.020;6.598;2024-03-22T07:23:02;41.40;;;22.30;;
52186;SDS011;38161;53.020;6.598;2024-03-22T07:25:29;40.13;;;21.75;;
52186;SDS011;38161;53.020;6.598;2024-03-22T07:27:56;47.47;;;21.15;;
52186;SDS011;38161;53.020;6.598;2024-03-22T07:30:22;42.45;;;21.42;;
52186;SDS011;38161;53.020;6.598;2024-03-22T07:32:48;36.60;;;20.27;;
52186;SDS011;38161;53.020;6.598;2024-03-22T07:35:13;35.90;;;20.55;;
52186;SDS011;38161;53.020;6.598;2024-03-22T07:37:39;40.00;;;21.23;;
52186;SDS011;38161;53.020;6.598;2024-03-22T07:40:06;35.80;;;20.23;;
52186;SDS011;38161;53.020;6.598;2024-03-22T07:42:32;34.45;;;20.92;;
52186;SDS011;38161;53.020;6.598;2024-03-22T07:44:58;30.83;;;18.27;;
52186;SDS011;38161;53.020;6.598;2024-03-22T07:47:23;34.60;;;19.80;;
52186;SDS011;38161;53.020;6.598;2024-03-22T07:49:50;36.40;;;19.08;;
52186;SDS011;38161;53.020;6.598;2024-03-22T07:52:16;38.45;;;19.35;;
52186;SDS011;38161;53.020;6.598;2024-03-22T07:54:42;40.42;;;19.65;;
52186;SDS011;38161;53.020;6.598;2024-03-22T07:57:08;32.08;;;18.63;;
52186;SDS011;38161;53.020;6.598;2024-03-22T07:59:35;33.72;;;17.38;;
52186;SDS011;38161;53.020;6.598;2024-03-22T08:02:01;38.85;;;19.25;;
52186;SDS011;38161;53.020;6.598;2024-03-22T08:06:54;26.83;;;15.13;;
52186;SDS011;38161;53.020;6.598;2024-03-22T08:09:19;26.90;;;16.17;;
52186;SDS011;38161;53.020;6.598;2024-03-22T08:11:45;31.05;;;15.85;;
52186;SDS011;38161;53.020;6.598;2024-03-22T08:14:11;30.70;;;15.73;;
52186;SDS011;38161;53.020;6.598;2024-03-22T08:16:37;29.53;;;14.80;;
52186;SDS011;38161;53.020;6.598;2024-03-22T08:19:03;30.95;;;14.98;;
52186;SDS011;38161;53.020;6.598;2024-03-22T08:21:28;28.90;;;14.85;;
52186;SDS011;38161;53.020;6.598;2024-03-22T08:23:54;30.20;;;15.38;;
52186;SDS011;38161;53.020;6.598;2024-03-22T08:26:20;30.90;;;15.43;;
52186;SDS011;38161;53.020;6.598;2024-03-22T08:28:46;30.27;;;15.68;;
52186;SDS011;38161;53.020;6.598;2024-03-22T08:31:13;24.63;;;14.45;;
52186;SDS011;38161;53.020;6.598;2024-03-22T08:33:39;25.73;;;13.80;;
52186;SDS011;38161;53.020;6.598;2024-03-22T08:36:05;31.55;;;14.77;;
52186;SDS011;38161;53.020;6.598;2024-03-22T08:38:31;26.60;;;14.23;;
52186;SDS011;38161;53.020;6.598;2024-03-22T08:40:58;21.70;;;12.90;;
52186;SDS011;38161;53.020;6.598;2024-03-22T08:43:24;26.30;;;13.85;;
52186;SDS011;38161;53.020;6.598;2024-03-22T08:45:54;23.45;;;12.68;;
52186;SDS011;38161;53.020;6.598;2024-03-22T08:50:46;21.73;;;11.70;;
52186;SDS011;38161;53.020;6.598;2024-03-22T08:53:12;21.25;;;12.73;;
52186;SDS011;38161;53.020;6.598;2024-03-22T08:55:38;18.83;;;12.43;;
52186;SDS011;38161;53.020;6.598;2024-03-22T08:58:10;19.30;;;10.70;;
52186;SDS011;38161;53.020;6.598;2024-03-22T09:00:36;18.58;;;11.55;;
52186;SDS011;38161;53.020;6.598;2024-03-22T09:03:03;21.45;;;12.10;;
52186;SDS011;38161;53.020;6.598;2024-03-22T09:05:29;21.25;;;11.75;;
52186;SDS011;38161;53.020;6.598;2024-03-22T09:07:54;21.38;;;12.48;;
52186;SDS011;38161;53.020;6.598;2024-03-22T09:10:22;22.13;;;12.05;;
52186;SDS011;38161;53.020;6.598;2024-03-22T09:12:48;18.65;;;11.48;;
52186;SDS011;38161;53.020;6.598;2024-03-22T09:15:13;20.10;;;10.70;;
52186;SDS011;38161;53.020;6.598;2024-03-22T09:17:39;19.17;;;11.15;;
52186;SDS011;38161;53.020;6.598;2024-03-22T09:20:05;18.02;;;10.90;;
52186;SDS011;38161;53.020;6.598;2024-03-22T09:22:32;17.15;;;10.13;;
52186;SDS011;38161;53.020;6.598;2024-03-22T09:24:59;19.58;;;11.27;;
52186;SDS011;38161;53.020;6.598;2024-03-22T09:27:25;18.23;;;10.70;;
52186;SDS011;38161;53.020;6.598;2024-03-22T09:29:51;17.15;;;10.70;;
52186;SDS011;38161;53.020;6.598;2024-03-22T09:32:17;19.35;;;10.60;;
52186;SDS011;38161;53.020;6.598;2024-03-22T09:34:43;18.80;;;9.90;;
52186;SDS011;38161;53.020;6.598;2024-03-22T09:37:09;17.55;;;10.00;;
52186;SDS011;38161;53.020;6.598;2024-03-22T09:39:35;15.63;;;9.32;;
52186;SDS011;38161;53.020;6.598;2024-03-22T09:42:01;18.20;;;9.55;;
52186;SDS011;38161;53.020;6.598;2024-03-22T09:44:31;17.10;;;9.20;;
52186;SDS011;38161;53.020;6.598;2024-03-22T09:46:58;13.30;;;8.65;;
52186;SDS011;38161;53.020;6.598;2024-03-22T09:49:25;17.20;;;9.30;;
52186;SDS011;38161;53.020;6.598;2024-03-22T09:51:51;15.38;;;8.23;;
52186;SDS011;38161;53.020;6.598;2024-03-22T09:54:18;15.13;;;8.82;;
52186;SDS011;38161;53.020;6.598;2024-03-22T09:56:43;14.30;;;8.30;;
52186;SDS011;38161;53.020;6.598;2024-03-22T09:59:13;13.80;;;8.07;;
52186;SDS011;38161;53.020;6.598;2024-03-22T10:01:39;13.27;;;8.40;;
52186;SDS011;38161;53.020;6.598;2024-03-22T10:04:06;13.55;;;7.82;;
52186;SDS011;38161;53.020;6.598;2024-03-22T10:06:34;11.35;;;7.30;;
52186;SDS011;38161;53.020;6.598;2024-03-22T10:09:00;13.50;;;6.80;;
52186;SDS011;38161;53.020;6.598;2024-03-22T10:11:27;11.30;;;7.20;;
52186;SDS011;38161;53.020;6.598;2024-03-22T10:13:53;10.48;;;6.93;;
52186;SDS011;38161;53.020;6.598;2024-03-22T10:16:20;12.82;;;7.22;;
52186;SDS011;38161;53.020;6.598;2024-03-22T10:18:49;13.85;;;7.15;;
52186;SDS011;38161;53.020;6.598;2024-03-22T10:21:18;10.80;;;6.55;;
52186;SDS011;38161;53.020;6.598;2024-03-22T10:23:44;10.68;;;6.65;;
52186;SDS011;38161;53.020;6.598;2024-03-22T10:26:12;9.35;;;6.15;;
52186;SDS011;38161;53.020;6.598;2024-03-22T10:28:43;9.68;;;6.18;;
52186;SDS011;38161;53.020;6.598;2024-03-22T10:31:11;12.38;;;7.10;;
52186;SDS011;38161;53.020;6.598;2024-03-22T10:33:37;10.52;;;6.32;;
52186;SDS011;38161;53.020;6.598;2024-03-22T10:36:05;11.07;;;6.18;;
52186;SDS011;38161;53.020;6.598;2024-03-22T10:38:32;10.02;;;6.57;;
52186;SDS011;38161;53.020;6.598;2024-03-22T10:41:01;11.05;;;6.40;;
52186;SDS011;38161;53.020;6.598;2024-03-22T10:45:54;8.60;;;5.50;;
52186;SDS011;38161;53.020;6.598;2024-03-22T10:48:24;9.13;;;5.60;;
52186;SDS011;38161;53.020;6.598;2024-03-22T10:50:54;7.70;;;5.43;;
52186;SDS011;38161;53.020;6.598;2024-03-22T10:53:24;8.50;;;5.43;;
52186;SDS011;38161;53.020;6.598;2024-03-22T10:55:52;9.18;;;5.13;;
52186;SDS011;38161;53.020;6.598;2024-03-22T10:58:22;8.48;;;5.88;;
52186;SDS011;38161;53.020;6.598;2024-03-22T11:00:53;7.60;;;5.07;;
52186;SDS011;38161;53.020;6.598;2024-03-22T11:03:21;12.05;;;6.32;;
52186;SDS011;38161;53.020;6.598;2024-03-22T11:05:54;8.02;;;4.32;;
52186;SDS011;38161;53.020;6.598;2024-03-22T11:08:24;7.50;;;4.82;;
52186;SDS011;38161;53.020;6.598;2024-03-22T11:10:51;8.32;;;4.35;;
52186;SDS011;38161;53.020;6.598;2024-03-22T11:13:17;6.72;;;4.03;;
52186;SDS011;38161;53.020;6.598;2024-03-22T11:15:43;6.50;;;4.55;;
52186;SDS011;38161;53.020;6.598;2024-03-22T11:18:09;8.33;;;4.10;;
52186;SDS011;38161;53.020;6.598;2024-03-22T11:20:38;7.32;;;4.55;;
52186;SDS011;38161;53.020;6.598;2024-03-22T11:23:04;8.45;;;4.82;;
52186;SDS011;38161;53.020;6.598;2024-03-22T11:25:33;7.30;;;4.75;;
52186;SDS011;38161;53.020;6.598;2024-03-22T11:27:59;6.72;;;4.18;;
52186;SDS011;38161;53.020;6.598;2024-03-22T11:30:30;6.40;;;4.05;;
52186;SDS011;38161;53.020;6.598;2024-03-22T11:32:57;6.38;;;3.88;;
52186;SDS011;38161;53.020;6.598;2024-03-22T11:35:26;7.80;;;4.50;;
52186;SDS011;38161;53.020;6.598;2024-03-22T11:37:51;7.05;;;4.07;;
52186;SDS011;38161;53.020;6.598;2024-03-22T11:40:17;6.90;;;4.30;;
52186;SDS011;38161;53.020;6.598;2024-03-22T11:42:47;6.38;;;3.60;;
52186;SDS011;38161;53.020;6.598;2024-03-22T11:45:15;6.82;;;3.67;;
52186;SDS011;38161;53.020;6.598;2024-03-22T11:47:46;5.88;;;3.05;;
52186;SDS011;38161;53.020;6.598;2024-03-22T11:50:12;4.93;;;3.25;;
52186;SDS011;38161;53.020;6.598;2024-03-22T11:52:42;6.00;;;3.30;;
52186;SDS011;38161;53.020;6.598;2024-03-22T11:55:10;6.75;;;3.38;;
52186;SDS011;38161;53.020;6.598;2024-03-22T11:57:36;7.90;;;3.22;;
52186;SDS011;38161;53.020;6.598;2024-03-22T12:00:02;6.28;;;3.55;;
52186;SDS011;38161;53.020;6.598;2024-03-22T12:02:34;5.38;;;3.00;;
52186;SDS011;38161;53.020;6.598;2024-03-22T12:05:01;4.47;;;2.85;;
52186;SDS011;38161;53.020;6.598;2024-03-22T12:07:29;5.63;;;3.13;;
52186;SDS011;38161;53.020;6.598;2024-03-22T12:09:55;6.78;;;3.10;;
52186;SDS011;38161;53.020;6.598;2024-03-22T12:12:21;5.30;;;2.78;;
52186;SDS011;38161;53.020;6.598;2024-03-22T12:14:48;6.43;;;3.15;;
52186;SDS011;38161;53.020;6.598;2024-03-22T12:17:16;5.22;;;2.40;;
52186;SDS011;38161;53.020;6.598;2024-03-22T12:19:42;5.05;;;2.60;;
52186;SDS011;38161;53.020;6.598;2024-03-22T12:22:08;5.20;;;2.40;;
52186;SDS011;38161;53.020;6.598;2024-03-22T12:24:34;5.22;;;2.60;;
52186;SDS011;38161;53.020;6.598;2024-03-22T12:27:01;7.50;;;2.80;;
52186;SDS011;38161;53.020;6.598;2024-03-22T12:29:27;6.40;;;2.72;;
52186;SDS011;38161;53.020;6.598;2024-03-22T12:31:53;8.48;;;2.95;;
52186;SDS011;38161;53.020;6.598;2024-03-22T12:34:19;7.35;;;2.88;;
52186;SDS011;38161;53.020;6.598;2024-03-22T12:36:51;7.75;;;3.22;;
52186;SDS011;38161;53.020;6.598;2024-03-22T12:39:16;6.90;;;2.78;;
52186;SDS011;38161;53.020;6.598;2024-03-22T12:41:42;6.17;;;2.83;;
52186;SDS011;38161;53.020;6.598;2024-03-22T12:44:08;5.13;;;3.03;;
52186;SDS011;38161;53.020;6.598;2024-03-22T12:46:34;6.95;;;2.92;;
52186;SDS011;38161;53.020;6.598;2024-03-22T12:49:00;7.32;;;2.90;;
52186;SDS011;38161;53.020;6.598;2024-03-22T12:51:28;8.05;;;3.20;;
52186;SDS011;38161;53.020;6.598;2024-03-22T12:53:54;7.15;;;3.30;;
52186;SDS011;38161;53.020;6.598;2024-03-22T12:56:20;9.07;;;3.38;;
52186;SDS011;38161;53.020;6.598;2024-03-22T12:58:46;6.05;;;3.08;;
52186;SDS011;38161;53.020;6.598;2024-03-22T13:01:12;5.88;;;3.22;;
52186;SDS011;38161;53.020;6.598;2024-03-22T13:06:04;9.70;;;3.50;;
52186;SDS011;38161;53.020;6.598;2024-03-22T13:08:33;7.68;;;3.65;;
52186;SDS011;38161;53.020;6.598;2024-03-22T13:10:59;8.73;;;4.18;;
52186;SDS011;38161;53.020;6.598;2024-03-22T13:13:25;9.75;;;4.13;;
52186;SDS011;38161;53.020;6.598;2024-03-22T13:15:51;10.68;;;4.85;;
52186;SDS011;38161;53.020;6.598;2024-03-22T13:18:17;9.77;;;5.47;;
52186;SDS011;38161;53.020;6.598;2024-03-22T13:20:43;8.18;;;4.35;;
52186;SDS011;38161;53.020;6.598;2024-03-22T13:23:09;12.13;;;4.68;;
52186;SDS011;38161;53.020;6.598;2024-03-22T13:25:36;10.07;;;4.13;;
52186;SDS011;38161;53.020;6.598;2024-03-22T13:28:05;9.80;;;4.13;;
52186;SDS011;38161;53.020;6.598;2024-03-22T13:30:31;9.85;;;3.97;;
52186;SDS011;38161;53.020;6.598;2024-03-22T13:32:57;12.45;;;4.97;;
52186;SDS011;38161;53.020;6.598;2024-03-22T13:35:24;11.05;;;4.53;;
52186;SDS011;38161;53.020;6.598;2024-03-22T13:37:50;14.18;;;5.47;;
52186;SDS011;38161;53.020;6.598;2024-03-22T13:40:16;15.00;;;4.75;;
52186;SDS011;38161;53.020;6.598;2024-03-22T13:42:41;10.23;;;4.38;;
52186;SDS011;38161;53.020;6.598;2024-03-22T13:45:07;19.00;;;11.10;;
52186;SDS011;38161;53.020;6.598;2024-03-22T13:47:33;15.35;;;6.40;;
52186;SDS011;38161;53.020;6.598;2024-03-22T13:50:00;17.15;;;7.05;;
52186;SDS011;38161;53.020;6.598;2024-03-22T13:52:27;20.25;;;6.68;;
52186;SDS011;38161;53.020;6.598;2024-03-22T13:54:52;13.47;;;6.57;;
52186;SDS011;38161;53.020;6.598;2024-03-22T13:57:18;15.13;;;6.00;;
52186;SDS011;38161;53.020;6.598;2024-03-22T13:59:44;17.33;;;8.40;;
52186;SDS011;38161;53.020;6.598;2024-03-22T14:02:11;15.45;;;6.32;;
52186;SDS011;38161;53.020;6.598;2024-03-22T14:04:36;12.03;;;5.53;;
52186;SDS011;38161;53.020;6.598;2024-03-22T14:07:02;19.23;;;9.55;;
52186;SDS011;38161;53.020;6.598;2024-03-22T14:09:32;19.98;;;8.60;;
52186;SDS011;38161;53.020;6.598;2024-03-22T14:11:59;16.35;;;7.95;;
52186;SDS011;38161;53.020;6.598;2024-03-22T14:14:26;32.30;;;16.23;;
52186;SDS011;38161;53.020;6.598;2024-03-22T14:16:52;25.15;;;10.57;;
52186;SDS011;38161;53.020;6.598;2024-03-22T14:19:18;14.55;;;7.40;;
52186;SDS011;38161;53.020;6.598;2024-03-22T14:21:44;20.30;;;6.80;;
52186;SDS011;38161;53.020;6.598;2024-03-22T14:24:11;17.45;;;6.45;;
52186;SDS011;38161;53.020;6.598;2024-03-22T14:26:38;18.45;;;5.70;;
52186;SDS011;38161;53.020;6.598;2024-03-22T14:29:10;18.45;;;5.63;;
52186;SDS011;38161;53.020;6.598;2024-03-22T14:31:36;13.85;;;5.15;;
52186;SDS011;38161;53.020;6.598;2024-03-22T14:34:03;12.77;;;4.30;;
52186;SDS011;38161;53.020;6.598;2024-03-22T14:36:30;16.05;;;4.22;;
52186;SDS011;38161;53.020;6.598;2024-03-22T14:38:56;11.03;;;4.10;;
52186;SDS011;38161;53.020;6.598;2024-03-22T14:41:23;10.40;;;3.38;;
52186;SDS011;38161;53.020;6.598;2024-03-22T14:43:49;14.93;;;4.15;;